sensor_id;sensor_type;location;lat;lon;timestamp;P1;durP1;ratioP1;P2;durP2;ratioP2
1847;SDS011;924;52.448;13.356;2022-08-21T08:43:20;9.80;;;3.13;;
1847;SDS011;924;52.448;13.356;2022-08-21T08:45:48;5.87;;;3.03;;
1847;SDS011;924;52.448;13.356;2022-08-21T08:48:17;6.00;;;3.00;;
1847;SDS011;924;52.448;13.356;2022-08-21T08:50:53;7.13;;;3.33;;
1847;SDS011;924;52.448;13.356;2022-08-21T08:53:20;11.33;;;3.73;;
1847;SDS011;924;52.448;13.356;2022-08-21T08:55:47;5.60;;;3.50;;
1847;SDS011;924;52.448;13.356;2022-08-21T08:58:25;7.50;;;3.40;;
1847;SDS011;924;52.448;13.356;2022-08-21T09:00:52;3.73;;;2.77;;
1847;SDS011;924;52.448;13.356;2022-08-21T09:03:18;5.03;;;3.47;;
1847;SDS011;924;52.448;13.356;2022-08-21T09:13:15;5.40;;;3.80;;
1847;SDS011;924;52.448;13.356;2022-08-21T09:23:42;5.20;;;3.20;;
1847;SDS011;924;52.448;13.356;2022-08-21T09:26:23;6.93;;;3.13;;
1847;SDS011;924;52.448;13.356;2022-08-21T09:28:51;4.47;;;3.03;;
1847;SDS011;924;52.448;13.356;2022-08-21T09:31:24;4.10;;;3.03;;
1847;SDS011;924;52.448;13.356;2022-08-21T09:33:56;5.00;;;2.80;;
1847;SDS011;924;52.448;13.356;2022-08-21T09:36:24;11.40;;;4.67;;
1847;SDS011;924;52.448;13.356;2022-08-21T09:38:52;6.57;;;3.17;;
1847;SDS011;924;52.448;13.356;2022-08-21T09:41:25;4.23;;;2.93;;
1847;SDS011;924;52.448;13.356;2022-08-21T09:43:53;3.67;;;2.67;;
1847;SDS011;924;52.448;13.356;2022-08-21T09:46:25;3.00;;;2.53;;
1847;SDS011;924;52.448;13.356;2022-08-21T09:48:55;4.40;;;2.63;;
1847;SDS011;924;52.448;13.356;2022-08-21T09:51:22;4.80;;;3.30;;
1847;SDS011;924;52.448;13.356;2022-08-21T09:53:49;3.60;;;2.80;;
1847;SDS011;924;52.448;13.356;2022-08-21T09:59:16;7.33;;;3.23;;
1847;SDS011;924;52.448;13.356;2022-08-21T10:01:42;4.30;;;2.83;;
1847;SDS011;924;52.448;13.356;2022-08-21T10:04:08;9.30;;;3.50;;
1847;SDS011;924;52.448;13.356;2022-08-21T10:06:34;5.17;;;2.90;;
1847;SDS011;924;52.448;13.356;2022-08-21T10:09:06;8.03;;;3.10;;
1847;SDS011;924;52.448;13.356;2022-08-21T10:11:32;3.47;;;2.93;;
1847;SDS011;924;52.448;13.356;2022-08-21T10:17:01;9.00;;;3.37;;
1847;SDS011;924;52.448;13.356;2022-08-21T10:19:48;4.87;;;2.83;;
1847;SDS011;924;52.448;13.356;2022-08-21T10:22:24;3.23;;;2.73;;
1847;SDS011;924;52.448;13.356;2022-08-21T10:27:35;4.13;;;2.50;;
1847;SDS011;924;52.448;13.356;2022-08-21T10:30:12;3.47;;;2.80;;
1847;SDS011;924;52.448;13.356;2022-08-21T10:35:14;3.30;;;2.40;;
1847;SDS011;924;52.448;13.356;2022-08-21T10:40:31;3.53;;;2.00;;
1847;SDS011;924;52.448;13.356;2022-08-21T10:48:05;4.37;;;2.13;;
1847;SDS011;924;52.448;13.356;2022-08-21T10:56:02;4.13;;;1.97;;
1847;SDS011;924;52.448;13.356;2022-08-21T10:58:35;2.50;;;1.50;;
1847;SDS011;924;52.448;13.356;2022-08-21T11:01:10;3.30;;;2.10;;
1847;SDS011;924;52.448;13.356;2022-08-21T11:03:41;3.37;;;1.87;;
1847;SDS011;924;52.448;13.356;2022-08-21T11:06:28;2.50;;;1.50;;
1847;SDS011;924;52.448;13.356;2022-08-21T11:08:56;2.83;;;1.20;;
1847;SDS011;924;52.448;13.356;2022-08-21T11:13:52;2.00;;;1.50;;
1847;SDS011;924;52.448;13.356;2022-08-21T11:18:49;2.20;;;1.63;;
1847;SDS011;924;52.448;13.356;2022-08-21T11:26:52;2.73;;;1.43;;
1847;SDS011;924;52.448;13.356;2022-08-21T11:29:21;1.83;;;1.33;;
1847;SDS011;924;52.448;13.356;2022-08-21T11:34:21;2.33;;;1.40;;
1847;SDS011;924;52.448;13.356;2022-08-21T11:41:46;1.73;;;1.60;;
1847;SDS011;924;52.448;13.356;2022-08-21T11:44:18;3.07;;;1.87;;
1847;SDS011;924;52.448;13.356;2022-08-21T11:46:59;2.17;;;1.40;;
1847;SDS011;924;52.448;13.356;2022-08-21T11:54:44;2.90;;;1.80;;
1847;SDS011;924;52.448;13.356;2022-08-21T12:00:03;6.47;;;2.70;;
1847;SDS011;924;52.448;13.356;2022-08-21T12:02:27;2.00;;;1.60;;
1847;SDS011;924;52.448;13.356;2022-08-21T12:04:55;3.30;;;1.73;;
1847;SDS011;924;52.448;13.356;2022-08-21T12:07:59;2.60;;;1.70;;
1847;SDS011;924;52.448;13.356;2022-08-21T12:10:14;4.30;;;2.00;;
1847;SDS011;924;52.448;13.356;2022-08-21T12:12:41;4.27;;;2.07;;
1847;SDS011;924;52.448;13.356;2022-08-21T12:17:58;6.47;;;2.27;;
1847;SDS011;924;52.448;13.356;2022-08-21T12:20:26;3.53;;;2.13;;
1847;SDS011;924;52.448;13.356;2022-08-21T12:22:53;3.83;;;2.07;;
1847;SDS011;924;52.448;13.356;2022-08-21T12:25:19;2.43;;;1.70;;
1847;SDS011;924;52.448;13.356;2022-08-21T12:32:46;4.53;;;2.30;;
1847;SDS011;924;52.448;13.356;2022-08-21T12:35:20;2.40;;;1.90;;
1847;SDS011;924;52.448;13.356;2022-08-21T12:40:22;1.90;;;1.23;;
1847;SDS011;924;52.448;13.356;2022-08-21T12:42:49;2.63;;;1.30;;
1847;SDS011;924;52.448;13.356;2022-08-21T12:45:19;2.90;;;2.00;;
1847;SDS011;924;52.448;13.356;2022-08-21T12:47:59;3.67;;;2.00;;
1847;SDS011;924;52.448;13.356;2022-08-21T12:50:41;2.73;;;1.83;;
1847;SDS011;924;52.448;13.356;2022-08-21T12:55:40;3.70;;;2.00;;
1847;SDS011;924;52.448;13.356;2022-08-21T12:58:06;2.13;;;1.77;;
1847;SDS011;924;52.448;13.356;2022-08-21T13:00:32;3.83;;;1.80;;
1847;SDS011;924;52.448;13.356;2022-08-21T13:02:57;6.40;;;2.00;;
1847;SDS011;924;52.448;13.356;2022-08-21T13:05:56;3.13;;;1.67;;
1847;SDS011;924;52.448;13.356;2022-08-21T13:08:18;2.70;;;2.00;;
1847;SDS011;924;52.448;13.356;2022-08-21T13:10:44;3.80;;;1.93;;
1847;SDS011;924;52.448;13.356;2022-08-21T13:13:15;4.07;;;2.07;;
1847;SDS011;924;52.448;13.356;2022-08-21T13:15:42;5.53;;;2.70;;
1847;SDS011;924;52.448;13.356;2022-08-21T13:18:07;8.77;;;2.97;;
1847;SDS011;924;52.448;13.356;2022-08-21T13:22:59;4.47;;;3.57;;
1847;SDS011;924;52.448;13.356;2022-08-21T13:25:26;3.90;;;2.53;;
1847;SDS011;924;52.448;13.356;2022-08-21T13:27:59;6.50;;;3.00;;
1847;SDS011;924;52.448;13.356;2022-08-21T13:30:25;3.00;;;2.37;;
1847;SDS011;924;52.448;13.356;2022-08-21T13:32:52;3.80;;;2.90;;
1847;SDS011;924;52.448;13.356;2022-08-21T13:35:20;2.93;;;2.50;;
1847;SDS011;924;52.448;13.356;2022-08-21T13:37:46;5.20;;;2.20;;
1847;SDS011;924;52.448;13.356;2022-08-21T13:40:13;4.23;;;2.87;;
1847;SDS011;924;52.448;13.356;2022-08-21T13:42:40;5.83;;;2.90;;
1847;SDS011;924;52.448;13.356;2022-08-21T13:45:17;3.40;;;2.23;;
1847;SDS011;924;52.448;13.356;2022-08-21T13:47:43;4.60;;;2.80;;
1847;SDS011;924;52.448;13.356;2022-08-21T13:50:11;8.63;;;4.50;;
1847;SDS011;924;52.448;13.356;2022-08-21T13:52:44;5.43;;;3.77;;
1847;SDS011;924;52.448;13.356;2022-08-21T13:55:12;5.50;;;2.20;;
1847;SDS011;924;52.448;13.356;2022-08-21T13:57:38;4.93;;;2.70;;
1847;SDS011;924;52.448;13.356;2022-08-21T14:00:11;6.70;;;2.50;;
1847;SDS011;924;52.448;13.356;2022-08-21T14:02:38;4.00;;;2.57;;
1847;SDS011;924;52.448;13.356;2022-08-21T14:05:04;6.77;;;3.10;;
1847;SDS011;924;52.448;13.356;2022-08-21T14:07:34;3.50;;;3.00;;
1847;SDS011;924;52.448;13.356;2022-08-21T14:10:02;5.10;;;3.00;;
1847;SDS011;924;52.448;13.356;2022-08-21T14:12:29;7.93;;;3.40;;
1847;SDS011;924;52.448;13.356;2022-08-21T14:14:56;4.83;;;2.90;;
1847;SDS011;924;52.448;13.356;2022-08-21T14:17:29;4.27;;;2.53;;
1847;SDS011;924;52.448;13.356;2022-08-21T14:19:56;2.77;;;2.57;;
1847;SDS011;924;52.448;13.356;2022-08-21T14:22:29;4.90;;;3.10;;
1847;SDS011;924;52.448;13.356;2022-08-21T14:24:58;4.50;;;2.60;;
1847;SDS011;924;52.448;13.356;2022-08-21T14:27:25;2.83;;;2.53;;
1847;SDS011;924;52.448;13.356;2022-08-21T14:29:50;5.10;;;2.77;;
1847;SDS011;924;52.448;13.356;2022-08-21T14:32:22;3.90;;;2.87;;
1847;SDS011;924;52.448;13.356;2022-08-21T14:34:49;2.83;;;2.50;;
1847;SDS011;924;52.448;13.356;2022-08-21T14:37:15;3.17;;;2.87;;
1847;SDS011;924;52.448;13.356;2022-08-21T14:39:40;3.23;;;2.73;;
1847;SDS011;924;52.448;13.356;2022-08-21T14:42:05;3.87;;;2.87;;
1847;SDS011;924;52.448;13.356;2022-08-21T14:44:30;2.77;;;2.30;;
1847;SDS011;924;52.448;13.356;2022-08-21T14:46:58;3.33;;;2.83;;
1847;SDS011;924;52.448;13.356;2022-08-21T14:49:24;3.90;;;2.50;;
1847;SDS011;924;52.448;13.356;2022-08-21T14:51:51;3.10;;;2.80;;
1847;SDS011;924;52.448;13.356;2022-08-21T14:54:21;4.03;;;2.70;;
1847;SDS011;924;52.448;13.356;2022-08-21T14:56:46;3.33;;;3.03;;
1847;SDS011;924;52.448;13.356;2022-08-21T14:59:12;6.60;;;3.10;;
1847;SDS011;924;52.448;13.356;2022-08-21T15:01:37;5.33;;;2.47;;
1847;SDS011;924;52.448;13.356;2022-08-21T15:04:03;3.80;;;3.00;;
1847;SDS011;924;52.448;13.356;2022-08-21T15:06:28;6.73;;;3.30;;
1847;SDS011;924;52.448;13.356;2022-08-21T15:08:54;5.17;;;2.80;;
1847;SDS011;924;52.448;13.356;2022-08-21T15:11:20;7.10;;;3.60;;
1847;SDS011;924;52.448;13.356;2022-08-21T15:13:46;3.33;;;2.60;;
1847;SDS011;924;52.448;13.356;2022-08-21T15:16:12;5.43;;;2.70;;
1847;SDS011;924;52.448;13.356;2022-08-21T15:18:37;3.80;;;3.30;;
1847;SDS011;924;52.448;13.356;2022-08-21T15:21:03;4.47;;;3.33;;
1847;SDS011;924;52.448;13.356;2022-08-21T15:23:28;5.30;;;3.20;;
1847;SDS011;924;52.448;13.356;2022-08-21T15:25:53;3.17;;;2.87;;
1847;SDS011;924;52.448;13.356;2022-08-21T15:28:20;4.00;;;3.40;;
1847;SDS011;924;52.448;13.356;2022-08-21T15:30:46;3.13;;;2.83;;
1847;SDS011;924;52.448;13.356;2022-08-21T15:33:11;4.00;;;2.97;;
1847;SDS011;924;52.448;13.356;2022-08-21T15:35:37;4.10;;;2.93;;
1847;SDS011;924;52.448;13.356;2022-08-21T15:38:02;4.83;;;3.53;;
1847;SDS011;924;52.448;13.356;2022-08-21T15:40:28;4.90;;;3.03;;
1847;SDS011;924;52.448;13.356;2022-08-21T15:42:56;3.23;;;3.03;;
1847;SDS011;924;52.448;13.356;2022-08-21T15:45:22;4.30;;;3.30;;
1847;SDS011;924;52.448;13.356;2022-08-21T15:47:49;6.30;;;3.50;;
1847;SDS011;924;52.448;13.356;2022-08-21T15:50:14;3.20;;;2.90;;
1847;SDS011;924;52.448;13.356;2022-08-21T15:52:40;3.83;;;3.43;;
1847;SDS011;924;52.448;13.356;2022-08-21T15:55:05;4.40;;;3.37;;
1847;SDS011;924;52.448;13.356;2022-08-21T15:57:31;4.10;;;3.10;;
1847;SDS011;924;52.448;13.356;2022-08-21T15:59:57;4.00;;;3.10;;
1847;SDS011;924;52.448;13.356;2022-08-21T16:02:26;4.93;;;3.60;;
1847;SDS011;924;52.448;13.356;2022-08-21T16:04:51;4.40;;;3.60;;
1847;SDS011;924;52.448;13.356;2022-08-21T16:07:17;3.40;;;2.83;;
1847;SDS011;924;52.448;13.356;2022-08-21T16:09:42;3.40;;;3.10;;
1847;SDS011;924;52.448;13.356;2022-08-21T16:12:08;3.30;;;3.00;;
1847;SDS011;924;52.448;13.356;2022-08-21T16:14:34;3.50;;;3.20;;
1847;SDS011;924;52.448;13.356;2022-08-21T16:17:01;3.27;;;3.07;;
1847;SDS011;924;52.448;13.356;2022-08-21T16:19:27;3.73;;;3.00;;
1847;SDS011;924;52.448;13.356;2022-08-21T16:21:53;4.03;;;3.60;;
1847;SDS011;924;52.448;13.356;2022-08-21T16:24:18;6.63;;;3.43;;
1847;SDS011;924;52.448;13.356;2022-08-21T16:26:43;4.93;;;3.67;;
1847;SDS011;924;52.448;13.356;2022-08-21T16:29:08;6.53;;;3.43;;
1847;SDS011;924;52.448;13.356;2022-08-21T16:31:34;7.70;;;4.20;;
1847;SDS011;924;52.448;13.356;2022-08-21T16:33:59;7.10;;;3.33;;
1847;SDS011;924;52.448;13.356;2022-08-21T16:36:25;6.13;;;3.67;;
1847;SDS011;924;52.448;13.356;2022-08-21T16:38:51;9.87;;;4.57;;
1847;SDS011;924;52.448;13.356;2022-08-21T16:41:18;9.37;;;5.10;;
1847;SDS011;924;52.448;13.356;2022-08-21T16:43:45;6.00;;;3.37;;
1847;SDS011;924;52.448;13.356;2022-08-21T16:46:11;5.73;;;2.80;;
1847;SDS011;924;52.448;13.356;2022-08-21T16:48:37;5.60;;;3.93;;
1847;SDS011;924;52.448;13.356;2022-08-21T16:51:03;5.20;;;3.30;;
1847;SDS011;924;52.448;13.356;2022-08-21T16:53:29;5.23;;;2.90;;
1847;SDS011;924;52.448;13.356;2022-08-21T16:55:54;3.73;;;2.63;;
1847;SDS011;924;52.448;13.356;2022-08-21T16:58:21;4.70;;;2.50;;
1847;SDS011;924;52.448;13.356;2022-08-21T17:00:47;4.90;;;4.03;;
1847;SDS011;924;52.448;13.356;2022-08-21T17:03:14;3.63;;;3.13;;
1847;SDS011;924;52.448;13.356;2022-08-21T17:05:41;4.47;;;4.10;;
1847;SDS011;924;52.448;13.356;2022-08-21T17:08:06;3.40;;;3.10;;
1847;SDS011;924;52.448;13.356;2022-08-21T17:10:33;7.80;;;3.80;;
1847;SDS011;924;52.448;13.356;2022-08-21T17:12:58;3.07;;;2.73;;
1847;SDS011;924;52.448;13.356;2022-08-21T17:15:26;5.80;;;3.07;;
1847;SDS011;924;52.448;13.356;2022-08-21T17:17:52;5.50;;;3.00;;
1847;SDS011;924;52.448;13.356;2022-08-21T17:20:17;4.73;;;3.40;;
1847;SDS011;924;52.448;13.356;2022-08-21T17:22:43;4.40;;;2.90;;
1847;SDS011;924;52.448;13.356;2022-08-21T17:25:08;4.93;;;3.17;;
1847;SDS011;924;52.448;13.356;2022-08-21T17:27:33;4.50;;;2.63;;
1847;SDS011;924;52.448;13.356;2022-08-21T17:29:59;3.10;;;2.73;;
1847;SDS011;924;52.448;13.356;2022-08-21T17:32:25;5.60;;;3.23;;
1847;SDS011;924;52.448;13.356;2022-08-21T17:34:50;4.80;;;3.03;;
1847;SDS011;924;52.448;13.356;2022-08-21T17:37:16;3.93;;;2.93;;
1847;SDS011;924;52.448;13.356;2022-08-21T17:39:41;3.83;;;3.10;;
1847;SDS011;924;52.448;13.356;2022-08-21T17:42:09;3.17;;;2.30;;
1847;SDS011;924;52.448;13.356;2022-08-21T17:44:42;4.73;;;2.90;;
1847;SDS011;924;52.448;13.356;2022-08-21T17:47:08;4.83;;;3.40;;
1847;SDS011;924;52.448;13.356;2022-08-21T17:49:34;3.23;;;2.93;;
1847;SDS011;924;52.448;13.356;2022-08-21T17:51:59;5.80;;;3.20;;
1847;SDS011;924;52.448;13.356;2022-08-21T17:54:25;5.00;;;3.57;;
1847;SDS011;924;52.448;13.356;2022-08-21T17:56:50;4.47;;;3.10;;
1847;SDS011;924;52.448;13.356;2022-08-21T17:59:16;4.33;;;2.80;;
1847;SDS011;924;52.448;13.356;2022-08-21T18:01:42;3.67;;;2.83;;
1847;SDS011;924;52.448;13.356;2022-08-21T18:04:08;3.93;;;2.80;;
1847;SDS011;924;52.448;13.356;2022-08-21T18:06:34;6.13;;;2.80;;
1847;SDS011;924;52.448;13.356;2022-08-21T18:08:59;4.57;;;3.23;;
1847;SDS011;924;52.448;13.356;2022-08-21T18:11:26;4.10;;;3.27;;
1847;SDS011;924;52.448;13.356;2022-08-21T18:13:51;5.07;;;3.20;;
1847;SDS011;924;52.448;13.356;2022-08-21T18:16:17;7.90;;;4.03;;
1847;SDS011;924;52.448;13.356;2022-08-21T18:18:43;3.53;;;2.87;;
1847;SDS011;924;52.448;13.356;2022-08-21T18:21:09;3.50;;;3.00;;
1847;SDS011;924;52.448;13.356;2022-08-21T18:23:35;4.10;;;3.20;;
1847;SDS011;924;52.448;13.356;2022-08-21T18:26:00;3.43;;;3.13;;
1847;SDS011;924;52.448;13.356;2022-08-21T18:28:25;4.90;;;3.20;;
1847;SDS011;924;52.448;13.356;2022-08-21T18:30:52;4.43;;;3.10;;
1847;SDS011;924;52.448;13.356;2022-08-21T18:33:19;5.00;;;3.70;;
1847;SDS011;924;52.448;13.356;2022-08-21T18:35:44;5.17;;;3.57;;
1847;SDS011;924;52.448;13.356;2022-08-21T18:38:10;4.00;;;3.57;;
1847;SDS011;924;52.448;13.356;2022-08-21T18:40:36;7.57;;;4.10;;
1847;SDS011;924;52.448;13.356;2022-08-21T18:43:02;4.50;;;3.70;;
1847;SDS011;924;52.448;13.356;2022-08-21T18:45:30;4.17;;;3.80;;
1847;SDS011;924;52.448;13.356;2022-08-21T18:47:56;7.27;;;4.10;;
1847;SDS011;924;52.448;13.356;2022-08-21T18:50:23;5.60;;;3.87;;
1847;SDS011;924;52.448;13.356;2022-08-21T18:52:48;6.43;;;4.80;;
1847;SDS011;924;52.448;13.356;2022-08-21T18:55:14;6.40;;;4.90;;
1847;SDS011;924;52.448;13.356;2022-08-21T18:57:40;5.13;;;4.60;;
1847;SDS011;924;52.448;13.356;2022-08-21T19:00:13;5.10;;;4.60;;
1847;SDS011;924;52.448;13.356;2022-08-21T19:02:39;5.63;;;4.13;;
1847;SDS011;924;52.448;13.356;2022-08-21T19:05:05;4.67;;;4.27;;
1847;SDS011;924;52.448;13.356;2022-08-21T19:07:30;4.90;;;4.33;;
1847;SDS011;924;52.448;13.356;2022-08-21T19:09:56;7.30;;;4.90;;
1847;SDS011;924;52.448;13.356;2022-08-21T19:12:22;6.30;;;4.73;;
1847;SDS011;924;52.448;13.356;2022-08-21T19:14:47;5.20;;;4.70;;
1847;SDS011;924;52.448;13.356;2022-08-21T19:17:13;5.90;;;5.30;;
1847;SDS011;924;52.448;13.356;2022-08-21T19:19:38;6.53;;;4.43;;
1847;SDS011;924;52.448;13.356;2022-08-21T19:22:03;11.63;;;5.10;;
1847;SDS011;924;52.448;13.356;2022-08-21T19:24:29;5.10;;;4.43;;
1847;SDS011;924;52.448;13.356;2022-08-21T19:26:54;5.80;;;5.20;;
1847;SDS011;924;52.448;13.356;2022-08-21T19:29:19;6.37;;;5.10;;
1847;SDS011;924;52.448;13.356;2022-08-21T19:31:45;6.63;;;5.00;;
1847;SDS011;924;52.448;13.356;2022-08-21T19:34:12;5.80;;;4.33;;
1847;SDS011;924;52.448;13.356;2022-08-21T19:36:38;8.37;;;5.00;;
1847;SDS011;924;52.448;13.356;2022-08-21T19:39:04;6.50;;;4.93;;
1847;SDS011;924;52.448;13.356;2022-08-21T19:41:30;6.03;;;5.37;;
1847;SDS011;924;52.448;13.356;2022-08-21T19:43:56;5.80;;;4.80;;
1847;SDS011;924;52.448;13.356;2022-08-21T19:46:24;5.93;;;5.23;;
1847;SDS011;924;52.448;13.356;2022-08-21T19:48:50;5.13;;;4.30;;
1847;SDS011;924;52.448;13.356;2022-08-21T19:51:16;7.07;;;5.63;;
1847;SDS011;924;52.448;13.356;2022-08-21T19:53:41;8.77;;;5.30;;
1847;SDS011;924;52.448;13.356;2022-08-21T19:56:07;7.03;;;5.57;;
1847;SDS011;924;52.448;13.356;2022-08-21T20:00:58;6.87;;;5.10;;
1847;SDS011;924;52.448;13.356;2022-08-21T20:03:24;5.80;;;5.30;;
1847;SDS011;924;52.448;13.356;2022-08-21T20:05:49;5.70;;;5.10;;
1847;SDS011;924;52.448;13.356;2022-08-21T20:08:14;6.20;;;5.27;;
1847;SDS011;924;52.448;13.356;2022-08-21T20:10:39;6.37;;;5.20;;
1847;SDS011;924;52.448;13.356;2022-08-21T20:13:05;5.63;;;5.13;;
1847;SDS011;924;52.448;13.356;2022-08-21T20:15:31;5.50;;;5.00;;
1847;SDS011;924;52.448;13.356;2022-08-21T20:17:56;6.03;;;5.50;;
1847;SDS011;924;52.448;13.356;2022-08-21T20:20:22;6.90;;;5.90;;
1847;SDS011;924;52.448;13.356;2022-08-21T20:22:47;7.80;;;6.07;;
1847;SDS011;924;52.448;13.356;2022-08-21T20:25:12;8.17;;;6.17;;
1847;SDS011;924;52.448;13.356;2022-08-21T20:27:38;7.50;;;5.70;;
1847;SDS011;924;52.448;13.356;2022-08-21T20:30:04;9.13;;;5.77;;
1847;SDS011;924;52.448;13.356;2022-08-21T20:32:30;7.70;;;5.83;;
1847;SDS011;924;52.448;13.356;2022-08-21T20:34:55;7.23;;;5.37;;
1847;SDS011;924;52.448;13.356;2022-08-21T20:37:20;6.57;;;5.93;;
1847;SDS011;924;52.448;13.356;2022-08-21T20:39:45;7.10;;;6.40;;
1847;SDS011;924;52.448;13.356;2022-08-21T20:42:11;8.30;;;5.20;;
1847;SDS011;924;52.448;13.356;2022-08-21T20:44:37;5.40;;;4.90;;
1847;SDS011;924;52.448;13.356;2022-08-21T20:47:02;12.40;;;6.20;;
1847;SDS011;924;52.448;13.356;2022-08-21T20:49:30;8.17;;;6.20;;
1847;SDS011;924;52.448;13.356;2022-08-21T20:51:57;8.60;;;7.00;;
1847;SDS011;924;52.448;13.356;2022-08-21T20:57:14;7.60;;;7.00;;
1847;SDS011;924;52.448;13.356;2022-08-21T21:00:04;6.73;;;6.10;;
1847;SDS011;924;52.448;13.356;2022-08-21T21:02:48;7.23;;;6.40;;
1847;SDS011;924;52.448;13.356;2022-08-21T21:05:19;8.40;;;6.83;;
1847;SDS011;924;52.448;13.356;2022-08-21T21:10:22;7.37;;;6.57;;
1847;SDS011;924;52.448;13.356;2022-08-21T21:12:48;7.67;;;6.97;;
1847;SDS011;924;52.448;13.356;2022-08-21T21:15:19;7.70;;;6.83;;
1847;SDS011;924;52.448;13.356;2022-08-21T21:17:49;8.90;;;7.60;;
1847;SDS011;924;52.448;13.356;2022-08-21T21:20:18;7.63;;;6.77;;
1847;SDS011;924;52.448;13.356;2022-08-21T21:22:53;8.00;;;7.20;;
1847;SDS011;924;52.448;13.356;2022-08-21T21:25:38;7.33;;;6.73;;
1847;SDS011;924;52.448;13.356;2022-08-21T21:28:07;7.87;;;7.00;;
1847;SDS011;924;52.448;13.356;2022-08-21T21:30:35;7.90;;;7.20;;
1847;SDS011;924;52.448;13.356;2022-08-21T21:33:00;8.00;;;7.20;;
1847;SDS011;924;52.448;13.356;2022-08-21T21:35:36;6.93;;;6.30;;
1847;SDS011;924;52.448;13.356;2022-08-21T21:38:29;7.67;;;6.97;;
1847;SDS011;924;52.448;13.356;2022-08-21T21:51:14;8.33;;;7.40;;
1847;SDS011;924;52.448;13.356;2022-08-21T21:57:09;11.87;;;6.90;;
1847;SDS011;924;52.448;13.356;2022-08-21T22:02:31;8.20;;;6.43;;
1847;SDS011;924;52.448;13.356;2022-08-21T22:05:02;8.03;;;7.33;;
1847;SDS011;924;52.448;13.356;2022-08-21T22:10:00;10.77;;;8.10;;
1847;SDS011;924;52.448;13.356;2022-08-21T22:12:29;7.30;;;6.60;;
1847;SDS011;924;52.448;13.356;2022-08-21T22:14:56;8.00;;;7.07;;
1847;SDS011;924;52.448;13.356;2022-08-21T22:19:54;8.83;;;6.83;;
1847;SDS011;924;52.448;13.356;2022-08-21T22:22:20;8.00;;;6.83;;
1847;SDS011;924;52.448;13.356;2022-08-21T22:24:52;7.47;;;6.83;;
1847;SDS011;924;52.448;13.356;2022-08-21T22:27:22;7.90;;;7.10;;
1847;SDS011;924;52.448;13.356;2022-08-21T22:29:51;8.07;;;7.27;;
1847;SDS011;924;52.448;13.356;2022-08-21T22:35:02;9.27;;;7.80;;
1847;SDS011;924;52.448;13.356;2022-08-21T22:37:32;8.40;;;6.90;;
1847;SDS011;924;52.448;13.356;2022-08-21T22:39:57;11.90;;;7.90;;
1847;SDS011;924;52.448;13.356;2022-08-21T22:42:23;8.87;;;8.13;;
1847;SDS011;924;52.448;13.356;2022-08-21T22:44:53;8.40;;;7.70;;
1847;SDS011;924;52.448;13.356;2022-08-21T22:47:30;8.67;;;7.80;;
1847;SDS011;924;52.448;13.356;2022-08-21T22:49:57;7.23;;;6.60;;
1847;SDS011;924;52.448;13.356;2022-08-21T22:52:24;9.07;;;6.40;;
1847;SDS011;924;52.448;13.356;2022-08-21T22:54:51;6.93;;;6.30;;
1847;SDS011;924;52.448;13.356;2022-08-21T22:57:25;8.80;;;7.00;;
1847;SDS011;924;52.448;13.356;2022-08-21T22:59:53;8.83;;;7.93;;
1847;SDS011;924;52.448;13.356;2022-08-21T23:04:46;7.30;;;6.60;;
1847;SDS011;924;52.448;13.356;2022-08-21T23:07:13;7.97;;;6.87;;
1847;SDS011;924;52.448;13.356;2022-08-21T23:09:53;9.80;;;7.30;;
1847;SDS011;924;52.448;13.356;2022-08-21T23:12:24;7.57;;;6.83;;
1847;SDS011;924;52.448;13.356;2022-08-21T23:14:50;9.20;;;6.80;;
1847;SDS011;924;52.448;13.356;2022-08-21T23:17:17;8.23;;;7.43;;
1847;SDS011;924;52.448;13.356;2022-08-21T23:30:12;7.50;;;6.77;;
1847;SDS011;924;52.448;13.356;2022-08-21T23:37:32;7.53;;;6.83;;
1847;SDS011;924;52.448;13.356;2022-08-21T23:45:24;8.83;;;7.13;;
1847;SDS011;924;52.448;13.356;2022-08-21T23:50:25;6.23;;;5.70;;
1847;SDS011;924;52.448;13.356;2022-08-21T23:55:46;7.47;;;6.77;;
